createdAt,value
2017-12-27T00:01:05.007Z,59.30
2017-12-27T00:02:12.363Z,59.20
2017-12-27T00:03:19.562Z,58.90
2017-12-27T00:04:26.798Z,58.90
2017-12-27T00:05:34.818Z,58.90
2017-12-27T00:06:42.424Z,59.00
2017-12-27T00:07:49.764Z,58.80
2017-12-27T00:09:10.941Z,58.80
2017-12-27T00:10:19.004Z,58.80
2017-12-27T00:11:27.236Z,58.90
2017-12-27T00:12:35.554Z,59.10
2017-12-27T00:13:42.838Z,59.50
2017-12-27T00:14:50.158Z,59.10
2017-12-27T00:17:31.152Z,58.90
2017-12-27T00:18:38.894Z,58.90
2017-12-27T00:20:00.134Z,59.00
2017-12-27T00:21:07.454Z,59.00
2017-12-27T00:22:14.901Z,58.50
2017-12-27T00:23:22.277Z,58.70
2017-12-27T00:24:30.011Z,58.90
2017-12-27T00:25:37.288Z,58.40
2017-12-27T00:26:44.712Z,59.00
2017-12-27T00:27:52.110Z,59.20
2017-12-27T00:28:59.504Z,59.70
2017-12-27T00:30:07.522Z,59.10
2017-12-27T00:31:08.834Z,59.10
2017-12-27T00:32:14.804Z,59.00
2017-12-27T00:33:16.088Z,59.00
2017-12-27T00:34:17.376Z,58.60
2017-12-27T00:35:18.956Z,58.60
2017-12-27T00:36:20.248Z,58.70
2017-12-27T00:37:21.544Z,58.60
2017-12-27T00:38:22.822Z,58.40
2017-12-27T00:39:24.098Z,58.40
2017-12-27T00:40:25.412Z,58.20
2017-12-27T00:41:26.697Z,58.10
2017-12-27T00:42:27.984Z,58.20
2017-12-27T00:43:29.270Z,58.30
2017-12-27T00:44:31.306Z,58.60
2017-12-27T00:45:32.872Z,58.20
2017-12-27T00:46:34.920Z,58.30
2017-12-27T00:47:36.204Z,58.30
2017-12-27T00:48:37.498Z,58.40
2017-12-27T00:49:39.514Z,58.70
2017-12-27T00:50:41.078Z,58.60
2017-12-27T00:51:42.372Z,58.70
2017-12-27T00:52:43.686Z,58.50
2017-12-27T00:53:44.962Z,58.50
2017-12-27T00:54:46.248Z,58.40
2017-12-27T00:55:48.288Z,58.20
2017-12-27T00:56:50.303Z,58.20
2017-12-27T00:57:51.598Z,58.10
2017-12-27T00:58:52.881Z,58.00
2017-12-27T00:59:54.186Z,57.90
2017-12-27T01:00:55.746Z,57.80
2017-12-27T01:01:57.036Z,57.80
2017-12-27T01:02:59.053Z,57.70
2017-12-27T01:04:00.330Z,57.70
2017-12-27T01:05:02.344Z,57.50
2017-12-27T01:06:03.654Z,57.50
2017-12-27T01:07:11.786Z,57.40
2017-12-27T01:08:13.086Z,57.20
2017-12-27T01:09:14.354Z,57.20
2017-12-27T01:10:15.650Z,56.50
2017-12-27T01:11:17.298Z,56.40
2017-12-27T01:12:18.600Z,56.50
2017-12-27T01:13:20.616Z,56.00
2017-12-27T01:14:21.902Z,56.00
2017-12-27T01:15:23.242Z,56.00
2017-12-27T01:16:25.522Z,56.20
2017-12-27T01:17:26.810Z,56.10
2017-12-27T01:18:28.102Z,55.80
2017-12-27T01:19:29.426Z,56.60
2017-12-27T01:20:30.720Z,56.40
2017-12-27T01:21:32.279Z,56.40
2017-12-27T01:22:34.316Z,57.00
2017-12-27T01:23:35.598Z,57.00
2017-12-27T01:24:36.907Z,57.20
2017-12-27T01:25:38.948Z,57.50
2017-12-27T01:26:41.250Z,57.60
2017-12-27T01:27:42.538Z,57.60
2017-12-27T01:28:43.826Z,57.70
2017-12-27T01:29:45.122Z,58.30
2017-12-27T01:30:47.160Z,58.20
2017-12-27T01:31:48.724Z,58.20
2017-12-27T01:32:50.764Z,58.20
2017-12-27T01:33:52.072Z,58.20
2017-12-27T01:34:53.361Z,58.10
2017-12-27T01:35:54.700Z,57.90
2017-12-27T01:36:55.986Z,57.60
2017-12-27T01:37:57.273Z,56.70
2017-12-27T01:38:58.558Z,56.70
2017-12-27T01:39:59.838Z,57.10
2017-12-27T01:41:01.872Z,57.60
2017-12-27T01:42:03.194Z,57.60
2017-12-27T01:43:04.483Z,57.30
2017-12-27T01:44:05.763Z,57.10
2017-12-27T01:45:07.048Z,57.30
2017-12-27T01:46:08.374Z,57.80
2017-12-27T01:47:11.682Z,58.40
2017-12-27T01:48:12.982Z,58.30
2017-12-27T01:49:15.011Z,58.70
2017-12-27T01:50:16.330Z,58.70
2017-12-27T01:51:17.642Z,58.40
2017-12-27T01:52:19.216Z,58.20
2017-12-27T01:53:20.520Z,58.30
2017-12-27T01:54:21.850Z,58.70
2017-12-27T01:55:23.182Z,58.90
2017-12-27T01:56:24.503Z,59.10
2017-12-27T01:57:26.842Z,59.20
2017-12-27T01:58:28.128Z,59.20
2017-12-27T01:59:29.438Z,59.40
2017-12-27T02:00:31.498Z,59.40
2017-12-27T02:01:33.535Z,59.40
2017-12-27T02:02:35.220Z,59.40
2017-12-27T02:03:36.508Z,59.40
2017-12-27T02:04:37.808Z,59.30
2017-12-27T02:05:39.108Z,59.00
2017-12-27T02:06:41.150Z,59.50
2017-12-27T02:07:43.236Z,59.20
2017-12-27T02:08:44.522Z,59.70
2017-12-27T02:09:45.826Z,59.80
2017-12-27T02:10:47.123Z,59.10
2017-12-27T02:11:49.154Z,59.00
2017-12-27T02:12:50.766Z,59.00
2017-12-27T02:13:52.055Z,59.00
2017-12-27T02:14:54.093Z,58.80
2017-12-27T02:15:55.418Z,58.70
2017-12-27T02:16:56.706Z,59.20
2017-12-27T02:17:58.259Z,59.50
2017-12-27T02:18:59.574Z,59.30
2017-12-27T02:20:00.866Z,59.40
2017-12-27T02:21:02.163Z,59.50
2017-12-27T02:22:03.476Z,59.70
2017-12-27T02:23:05.075Z,59.40
2017-12-27T02:24:06.347Z,59.60
2017-12-27T02:25:08.403Z,60.00
2017-12-27T02:26:10.449Z,60.10
2017-12-27T02:27:12.493Z,60.20
2017-12-27T02:28:14.062Z,60.20
2017-12-27T02:29:15.390Z,59.90
2017-12-27T02:30:17.443Z,59.90
2017-12-27T02:31:19.475Z,59.70
2017-12-27T02:32:20.791Z,59.70
2017-12-27T02:33:22.411Z,59.50
2017-12-27T02:34:23.695Z,59.50
2017-12-27T02:35:24.991Z,59.80
2017-12-27T02:36:26.279Z,59.20
2017-12-27T02:37:28.333Z,59.60
2017-12-27T02:40:24.243Z,59.50
2017-12-27T02:41:25.524Z,59.30
2017-12-27T02:42:26.817Z,59.90
2017-12-27T02:43:28.127Z,59.20
2017-12-27T02:44:29.423Z,59.30
2017-12-27T02:45:30.735Z,59.30
2017-12-27T02:46:32.779Z,59.60
2017-12-27T02:47:34.067Z,59.50
2017-12-27T02:48:35.387Z,59.40
2017-12-27T02:49:37.047Z,59.30
2017-12-27T02:50:38.355Z,59.10
2017-12-27T02:51:40.371Z,58.80
2017-12-27T02:52:41.660Z,58.70
2017-12-27T02:53:43.047Z,58.80
2017-12-27T02:54:44.601Z,58.50
2017-12-27T02:55:45.895Z,58.60
2017-12-27T02:56:47.191Z,58.60
2017-12-27T02:57:49.233Z,58.30
2017-12-27T02:58:50.513Z,58.30
2017-12-27T02:59:52.085Z,58.00
2017-12-27T03:00:53.362Z,58.50
2017-12-27T03:01:55.390Z,58.60
2017-12-27T03:02:56.663Z,58.50
2017-12-27T03:03:57.983Z,58.20
2017-12-27T03:05:00.284Z,58.50
2017-12-27T03:06:01.591Z,58.40
2017-12-27T03:07:03.622Z,58.70
2017-12-27T03:08:04.909Z,58.70
2017-12-27T03:09:06.187Z,58.80
2017-12-27T03:10:07.755Z,58.70
2017-12-27T03:11:09.782Z,58.60
2017-12-27T03:12:11.071Z,58.60
2017-12-27T03:13:12.362Z,58.50
2017-12-27T03:14:13.655Z,58.40
2017-12-27T03:15:15.289Z,58.10
2017-12-27T03:16:16.581Z,58.20
2017-12-27T03:17:17.863Z,58.40
2017-12-27T03:18:19.143Z,59.00
2017-12-27T03:19:20.419Z,58.50
2017-12-27T03:20:21.993Z,58.40
2017-12-27T03:21:23.281Z,58.40
2017-12-27T03:22:32.373Z,58.70
2017-12-27T03:23:33.664Z,58.60
2017-12-27T03:24:34.955Z,59.10
2017-12-27T03:25:36.263Z,59.50
2017-12-27T03:26:37.575Z,59.70
2017-12-27T03:27:38.880Z,59.80
2017-12-27T03:28:40.909Z,59.90
2017-12-27T03:29:42.192Z,59.90
2017-12-27T03:30:43.747Z,59.80
2017-12-27T03:31:45.029Z,60.00
2017-12-27T03:32:46.342Z,60.10
2017-12-27T03:33:47.627Z,60.00
2017-12-27T03:34:49.663Z,60.00
2017-12-27T03:35:51.237Z,59.90
2017-12-27T03:36:59.415Z,60.60
2017-12-27T03:38:01.439Z,60.00
2017-12-27T03:39:02.790Z,60.00
2017-12-27T03:40:04.072Z,59.90
2017-12-27T03:41:05.630Z,60.00
2017-12-27T03:42:06.927Z,60.00
2017-12-27T03:43:08.943Z,59.90
2017-12-27T03:44:10.231Z,60.00
2017-12-27T03:45:11.507Z,59.80
2017-12-27T03:46:13.079Z,60.10
2017-12-27T03:47:14.396Z,60.20
2017-12-27T03:48:15.692Z,60.30
2017-12-27T03:49:16.979Z,60.40
2017-12-27T03:50:18.271Z,60.50
2017-12-27T03:51:19.575Z,60.10
2017-12-27T03:52:21.601Z,60.20
2017-12-27T03:53:22.883Z,60.10
2017-12-27T03:54:24.195Z,60.40
2017-12-27T03:55:26.223Z,60.70
2017-12-27T03:56:34.687Z,60.50
2017-12-27T03:57:35.975Z,60.60
2017-12-27T03:58:37.259Z,60.10
2017-12-27T03:59:38.535Z,60.20
2017-12-27T04:00:39.831Z,60.40
2017-12-27T04:01:41.160Z,60.60
2017-12-27T04:02:42.443Z,60.70
2017-12-27T04:03:43.727Z,60.80
2017-12-27T04:04:45.023Z,60.90
2017-12-27T04:05:46.343Z,61.00
2017-12-27T04:06:47.889Z,61.00
2017-12-27T04:07:49.170Z,60.10
2017-12-27T04:08:51.195Z,60.50
2017-12-27T04:09:52.475Z,60.40
2017-12-27T04:10:53.743Z,60.70
2017-12-27T04:11:55.319Z,60.90
2017-12-27T04:12:56.620Z,60.90
2017-12-27T04:13:58.644Z,61.70
2017-12-27T04:15:06.922Z,61.10
2017-12-27T04:16:08.963Z,60.80
2017-12-27T04:17:11.263Z,61.60
2017-12-27T04:18:12.547Z,60.80
2017-12-27T04:19:13.840Z,61.00
2017-12-27T04:20:15.129Z,61.20
2017-12-27T04:21:16.407Z,61.20
2017-12-27T04:22:17.721Z,60.90
2017-12-27T04:23:19.771Z,60.90
2017-12-27T04:24:21.787Z,60.80
2017-12-27T04:25:23.081Z,60.80
2017-12-27T04:26:24.383Z,61.00
2017-12-27T04:27:25.967Z,61.20
2017-12-27T04:28:27.253Z,61.30
2017-12-27T04:29:28.547Z,61.30
2017-12-27T04:30:29.847Z,61.20
2017-12-27T04:31:31.883Z,61.30
2017-12-27T04:32:33.471Z,61.20
2017-12-27T04:33:34.763Z,61.20
2017-12-27T04:34:36.045Z,61.30
2017-12-27T04:35:37.334Z,61.50
2017-12-27T04:36:38.603Z,61.50
2017-12-27T04:37:40.159Z,61.40
2017-12-27T04:38:41.451Z,61.40
2017-12-27T04:39:42.725Z,61.40
2017-12-27T04:40:44.019Z,61.00
2017-12-27T04:41:45.303Z,61.30
2017-12-27T04:42:47.661Z,59.60
2017-12-27T04:43:48.943Z,59.60
2017-12-27T04:44:50.245Z,59.20
2017-12-27T04:45:51.539Z,58.90
2017-12-27T04:46:53.595Z,58.30
2017-12-27T04:47:55.919Z,57.90
2017-12-27T04:48:57.207Z,57.80
2017-12-27T04:49:59.251Z,57.10
2017-12-27T04:51:01.287Z,56.20
2017-12-27T04:52:02.587Z,56.20
2017-12-27T04:53:04.224Z,56.40
2017-12-27T04:54:05.504Z,56.20
2017-12-27T04:55:06.811Z,56.30
2017-12-27T04:56:08.823Z,55.30
2017-12-27T04:57:10.870Z,54.80
2017-12-27T04:58:13.179Z,54.60
2017-12-27T04:59:14.479Z,54.60
2017-12-27T05:00:15.759Z,54.00
2017-12-27T05:01:23.991Z,54.30
2017-12-27T05:02:26.021Z,53.50
2017-12-27T05:03:27.629Z,53.40
2017-12-27T05:04:28.919Z,53.40
2017-12-27T05:05:30.991Z,53.20
2017-12-27T05:06:33.023Z,53.20
2017-12-27T05:07:34.304Z,53.10
2017-12-27T05:08:35.859Z,53.20
2017-12-27T05:09:37.155Z,52.80
2017-12-27T05:10:39.217Z,52.90
2017-12-27T05:11:40.522Z,52.80
2017-12-27T05:12:41.839Z,52.90
2017-12-27T05:13:43.143Z,52.40
2017-12-27T05:14:44.457Z,52.50
2017-12-27T05:15:46.511Z,52.30
2017-12-27T05:16:48.527Z,52.10
2017-12-27T05:17:49.991Z,52.00
2017-12-27T05:18:52.287Z,51.80
2017-12-27T05:19:53.575Z,51.70
2017-12-27T05:20:54.911Z,51.50
2017-12-27T05:21:56.195Z,51.60
2017-12-27T05:22:57.471Z,51.40
2017-12-27T05:23:58.822Z,51.40
2017-12-27T05:25:00.123Z,51.30
2017-12-27T05:26:01.431Z,51.50
2017-12-27T05:27:02.733Z,51.30
2017-12-27T05:28:04.068Z,51.20
2017-12-27T05:29:05.403Z,51.60
2017-12-27T05:30:06.691Z,51.50
2017-12-27T05:31:07.983Z,51.10
2017-12-27T05:32:09.303Z,51.20
2017-12-27T05:33:10.581Z,51.70
2017-12-27T05:34:12.827Z,51.20
2017-12-27T05:35:14.851Z,51.30
2017-12-27T05:36:23.028Z,51.30
2017-12-27T05:37:24.299Z,51.30
2017-12-27T05:38:25.579Z,51.30
2017-12-27T05:39:26.879Z,51.40
2017-12-27T05:40:28.906Z,51.70
2017-12-27T05:41:30.201Z,51.40
2017-12-27T05:42:31.475Z,51.30
2017-12-27T05:43:33.503Z,51.40
2017-12-27T05:44:35.139Z,51.00
2017-12-27T05:45:36.443Z,51.50
2017-12-27T05:46:38.467Z,51.40
2017-12-27T05:47:39.755Z,51.40
2017-12-27T05:48:41.035Z,51.50
2017-12-27T05:49:42.651Z,51.50
2017-12-27T05:50:43.933Z,51.50
2017-12-27T05:51:45.220Z,51.50
2017-12-27T05:52:46.556Z,51.40
2017-12-27T05:53:47.851Z,51.50
2017-12-27T05:54:49.549Z,51.70
2017-12-27T05:55:50.863Z,51.40
2017-12-27T05:56:52.127Z,51.40
2017-12-27T05:57:53.441Z,51.50
2017-12-27T05:58:54.740Z,51.50
2017-12-27T05:59:56.047Z,51.60
2017-12-27T06:00:57.327Z,51.60
2017-12-27T06:01:59.363Z,51.50
2017-12-27T06:03:00.653Z,50.90
2017-12-27T06:04:01.951Z,51.80
2017-12-27T06:05:04.011Z,51.10
2017-12-27T06:06:06.059Z,50.80
2017-12-27T06:07:08.127Z,50.70
2017-12-27T06:08:09.419Z,50.80
2017-12-27T06:09:10.705Z,50.30
2017-12-27T06:10:12.283Z,50.50
2017-12-27T06:11:13.575Z,50.40
2017-12-27T06:12:15.643Z,50.60
2017-12-27T06:13:16.939Z,50.60
2017-12-27T06:14:18.227Z,50.40
2017-12-27T06:15:19.523Z,50.40
2017-12-27T06:16:21.623Z,50.40
2017-12-27T06:17:22.921Z,50.40
2017-12-27T06:18:24.957Z,50.70
2017-12-27T06:19:26.367Z,50.70
2017-12-27T06:20:28.129Z,51.10
2017-12-27T06:21:30.417Z,51.00
2017-12-27T06:22:32.497Z,51.00
2017-12-27T06:23:33.915Z,50.90
2017-12-27T06:24:35.967Z,51.20
2017-12-27T06:25:38.279Z,51.10
2017-12-27T06:26:39.769Z,51.10
2017-12-27T06:27:41.902Z,51.90
2017-12-27T06:28:43.400Z,51.80
2017-12-27T06:29:44.797Z,52.90
2017-12-27T06:30:46.973Z,53.10
2017-12-27T06:31:49.211Z,53.20
2017-12-27T06:32:51.468Z,53.60
2017-12-27T06:33:52.911Z,53.50
2017-12-27T06:34:55.059Z,54.50
2017-12-27T06:35:56.559Z,54.40
2017-12-27T06:36:57.955Z,54.50
2017-12-27T06:37:59.323Z,54.40
2017-12-27T06:39:00.799Z,54.30
2017-12-27T06:40:02.099Z,54.50
2017-12-27T06:41:03.621Z,54.20
2017-12-27T06:42:05.663Z,55.20
2017-12-27T06:43:07.707Z,55.40
2017-12-27T06:44:08.987Z,55.40
2017-12-27T06:45:10.300Z,55.60
2017-12-27T06:46:12.635Z,56.00
2017-12-27T06:47:13.937Z,55.90
2017-12-27T06:48:15.235Z,56.20
2017-12-27T06:49:17.263Z,56.30
2017-12-27T06:50:18.543Z,56.20
2017-12-27T06:51:19.863Z,56.30
2017-12-27T06:52:21.143Z,56.20
2017-12-27T06:53:22.429Z,56.50
2017-12-27T06:54:24.466Z,56.30
2017-12-27T06:55:25.751Z,56.20
2017-12-27T06:56:27.683Z,56.40
2017-12-27T06:57:29.071Z,56.60
2017-12-27T06:58:30.627Z,56.10
2017-12-27T06:59:32.711Z,56.40
2017-12-27T07:00:34.883Z,56.90
2017-12-27T07:01:36.767Z,56.30
2017-12-27T07:02:38.068Z,56.50
2017-12-27T07:03:39.379Z,56.90
2017-12-27T07:04:41.419Z,57.30
2017-12-27T07:05:42.723Z,57.30
2017-12-27T07:06:44.055Z,57.30
2017-12-27T07:07:45.335Z,57.60
2017-12-27T07:08:47.365Z,58.00
2017-12-27T07:09:48.709Z,57.70
2017-12-27T07:10:50.001Z,57.60
2017-12-27T07:11:51.307Z,57.60
2017-12-27T07:12:53.329Z,57.30
2017-12-27T07:13:54.608Z,57.20
2017-12-27T07:14:55.908Z,57.10
2017-12-27T07:15:57.193Z,57.10
2017-12-27T07:16:58.539Z,56.80
2017-12-27T07:17:59.819Z,56.60
2017-12-27T07:19:01.123Z,57.10
2017-12-27T07:20:02.422Z,57.00
2017-12-27T07:21:04.463Z,57.70
2017-12-27T07:22:06.819Z,57.90
2017-12-27T07:23:08.103Z,57.90
2017-12-27T07:24:09.397Z,58.20
2017-12-27T07:25:11.451Z,58.70
2017-12-27T07:26:13.479Z,58.70
2017-12-27T07:27:14.819Z,58.70
2017-12-27T07:28:16.103Z,58.80
2017-12-27T07:29:17.403Z,58.90
2017-12-27T07:30:18.691Z,59.40
2017-12-27T07:31:20.027Z,59.00
2017-12-27T07:32:21.335Z,58.70
2017-12-27T07:33:23.374Z,58.80
2017-12-27T07:34:24.659Z,58.70
2017-12-27T07:35:25.955Z,58.80
2017-12-27T07:36:27.991Z,58.80
2017-12-27T07:37:29.595Z,58.80
2017-12-27T07:38:30.915Z,58.80
2017-12-27T07:39:32.209Z,58.90
2017-12-27T07:40:33.524Z,59.20
2017-12-27T07:41:34.843Z,59.80
2017-12-27T07:42:36.143Z,59.40
2017-12-27T07:43:38.195Z,59.10
2017-12-27T07:44:40.223Z,58.80
2017-12-27T07:45:41.575Z,58.70
2017-12-27T07:46:43.601Z,58.70
2017-12-27T07:47:51.965Z,58.70
2017-12-27T07:48:53.251Z,58.90
2017-12-27T07:49:54.575Z,59.00
2017-12-27T07:50:55.899Z,59.00
2017-12-27T07:51:57.203Z,58.90
2017-12-27T07:52:58.507Z,58.60
2017-12-27T07:53:59.791Z,58.80
2017-12-27T07:55:01.103Z,58.90
2017-12-27T07:56:02.383Z,59.00
2017-12-27T07:57:03.771Z,59.00
2017-12-27T07:58:06.127Z,58.80
2017-12-27T07:59:08.159Z,58.90
2017-12-27T08:00:09.463Z,58.90
2017-12-27T08:01:10.803Z,58.80
2017-12-27T08:02:12.139Z,59.00
2017-12-27T08:03:13.487Z,58.80
2017-12-27T08:04:14.751Z,58.80
2017-12-27T08:05:16.031Z,58.60
2017-12-27T08:06:17.323Z,58.60
2017-12-27T08:07:18.629Z,58.40
2017-12-27T08:08:19.959Z,58.90
2017-12-27T08:09:21.255Z,58.70
2017-12-27T08:10:23.269Z,58.90
2017-12-27T08:11:24.551Z,58.70
2017-12-27T08:12:25.840Z,58.90
2017-12-27T08:13:27.155Z,59.00
2017-12-27T08:14:28.439Z,59.10
2017-12-27T08:15:30.475Z,59.20
2017-12-27T08:16:31.771Z,59.10
2017-12-27T08:17:33.119Z,59.00
2017-12-27T08:18:34.419Z,58.90
2017-12-27T08:19:36.448Z,58.70
2017-12-27T08:20:37.734Z,58.70
2017-12-27T08:21:39.029Z,59.00
2017-12-27T08:22:41.055Z,58.70
2017-12-27T08:23:42.367Z,58.70
2017-12-27T08:24:43.648Z,58.80
2017-12-27T08:25:44.939Z,58.70
2017-12-27T08:26:46.241Z,58.50
2017-12-27T08:27:48.267Z,58.80
2017-12-27T08:28:49.577Z,58.70
2017-12-27T08:29:50.863Z,58.70
2017-12-27T08:30:52.883Z,58.60
2017-12-27T08:31:54.525Z,58.50
2017-12-27T08:32:56.595Z,58.70
2017-12-27T08:33:57.923Z,58.70
2017-12-27T08:34:59.202Z,59.00
2017-12-27T08:36:00.483Z,59.30
2017-12-27T08:37:01.780Z,59.60
2017-12-27T08:38:03.084Z,59.80
2017-12-27T08:39:04.666Z,60.00
2017-12-27T08:40:05.995Z,60.00
2017-12-27T08:41:08.012Z,60.20
2017-12-27T08:42:09.283Z,60.00
2017-12-27T08:43:10.560Z,60.10
2017-12-27T08:44:11.851Z,60.00
2017-12-27T08:45:13.135Z,60.00
2017-12-27T08:46:14.427Z,60.00
2017-12-27T08:47:15.711Z,59.80
2017-12-27T08:48:17.009Z,59.70
2017-12-27T08:49:18.317Z,59.70
2017-12-27T08:50:20.363Z,59.80
2017-12-27T08:51:21.661Z,59.70
2017-12-27T08:52:22.931Z,59.60
2017-12-27T08:53:24.207Z,59.60
2017-12-27T08:54:25.515Z,59.70
2017-12-27T08:55:27.551Z,59.70
2017-12-27T08:56:28.843Z,59.60
2017-12-27T08:57:30.190Z,59.70
2017-12-27T08:58:31.479Z,59.60
2017-12-27T08:59:33.803Z,59.70
2017-12-27T09:00:35.087Z,59.60
2017-12-27T09:01:36.371Z,59.70
2017-12-27T09:02:37.691Z,59.70
2017-12-27T09:03:38.980Z,59.70
2017-12-27T09:04:41.019Z,59.50
2017-12-27T09:05:43.083Z,59.60
2017-12-27T09:06:44.383Z,59.60
2017-12-27T09:07:45.655Z,59.70
2017-12-27T09:08:46.931Z,60.00
2017-12-27T09:09:48.251Z,60.00
2017-12-27T09:10:49.534Z,60.20
2017-12-27T09:11:50.819Z,60.20
2017-12-27T09:12:52.840Z,60.20
2017-12-27T09:13:54.120Z,60.10
2017-12-27T09:14:55.491Z,60.00
2017-12-27T09:15:56.776Z,60.60
2017-12-27T09:16:58.823Z,60.20
2017-12-27T09:18:00.844Z,60.30
2017-12-27T09:19:02.127Z,60.30
2017-12-27T09:20:04.179Z,60.40
2017-12-27T09:21:06.207Z,60.20
2017-12-27T09:22:07.523Z,60.20
2017-12-27T09:23:08.809Z,59.50
2017-12-27T09:24:10.103Z,59.90
2017-12-27T09:25:11.445Z,59.50
2017-12-27T09:26:12.727Z,59.50
2017-12-27T09:27:14.024Z,59.20
2017-12-27T09:28:15.303Z,59.10
2017-12-27T09:29:16.587Z,58.80
2017-12-27T09:30:17.895Z,58.40
2017-12-27T09:31:19.184Z,58.10
2017-12-27T09:32:21.203Z,56.50
2017-12-27T09:33:23.232Z,56.20
2017-12-27T09:34:24.520Z,56.10
2017-12-27T09:35:26.828Z,55.30
2017-12-27T09:36:28.123Z,55.20
2017-12-27T09:37:30.145Z,54.50
2017-12-27T09:38:31.435Z,54.40
2017-12-27T09:39:32.723Z,54.00
2017-12-27T09:40:34.064Z,54.10
2017-12-27T09:41:35.340Z,54.20
2017-12-27T09:42:36.611Z,54.70
2017-12-27T09:43:37.892Z,54.70
2017-12-27T09:44:39.926Z,54.80
2017-12-27T09:45:41.228Z,54.80
2017-12-27T09:46:42.512Z,53.90
2017-12-27T09:47:43.812Z,54.10
2017-12-27T09:48:45.112Z,54.10
2017-12-27T09:49:46.403Z,54.60
2017-12-27T09:50:48.011Z,55.00
2017-12-27T09:51:49.284Z,55.50
2017-12-27T09:52:50.578Z,55.20
2017-12-27T09:53:51.863Z,55.50
2017-12-27T09:54:53.139Z,55.40
2017-12-27T09:55:54.443Z,55.30
2017-12-27T09:56:55.719Z,55.80
2017-12-27T09:57:57.038Z,55.60
2017-12-27T09:58:59.064Z,56.20
2017-12-27T10:00:00.344Z,56.20
2017-12-27T10:01:01.874Z,56.30
2017-12-27T10:02:03.160Z,57.30
2017-12-27T10:03:04.451Z,57.20
2017-12-27T10:04:05.748Z,57.70
2017-12-27T10:05:07.048Z,58.20
2017-12-27T10:06:08.632Z,58.30
2017-12-27T10:07:09.931Z,59.00
2017-12-27T10:08:11.220Z,58.70
2017-12-27T10:09:13.244Z,59.00
2017-12-27T10:10:14.524Z,59.00
2017-12-27T10:11:16.088Z,59.20
2017-12-27T10:12:17.368Z,59.30
2017-12-27T10:13:18.679Z,59.40
2017-12-27T10:14:19.982Z,59.40
2017-12-27T10:15:21.284Z,59.40
2017-12-27T10:16:22.872Z,59.60
2017-12-27T10:17:24.148Z,59.40
2017-12-27T10:18:25.439Z,59.80
2017-12-27T10:19:26.715Z,59.80
2017-12-27T10:20:27.999Z,59.80
2017-12-27T10:21:29.607Z,60.00
2017-12-27T10:22:30.884Z,60.20
2017-12-27T10:23:32.187Z,60.40
2017-12-27T10:24:33.476Z,60.40
2017-12-27T10:25:34.751Z,60.30
2017-12-27T10:26:36.068Z,60.40
2017-12-27T10:27:37.344Z,60.20
2017-12-27T10:28:39.364Z,59.70
2017-12-27T10:29:40.649Z,59.60
2017-12-27T10:30:41.929Z,59.60
2017-12-27T10:31:43.508Z,59.10
2017-12-27T10:32:45.564Z,58.10
2017-12-27T10:33:47.585Z,56.80
2017-12-27T10:34:48.936Z,56.70
2017-12-27T10:35:50.210Z,56.40
2017-12-27T10:36:51.875Z,55.40
2017-12-27T10:37:53.186Z,54.90
2017-12-27T10:38:55.199Z,53.60
2017-12-27T10:39:56.527Z,53.50
2017-12-27T10:40:57.818Z,53.40
2017-12-27T10:41:59.148Z,52.30
2017-12-27T10:43:01.152Z,51.80
2017-12-27T10:44:02.438Z,51.60
2017-12-27T10:45:04.516Z,50.30
2017-12-27T10:46:05.798Z,50.20
2017-12-27T10:47:07.134Z,49.70
2017-12-27T10:48:08.440Z,49.60
2017-12-27T10:49:09.761Z,47.50
2017-12-27T10:50:11.076Z,46.90
2017-12-27T10:51:13.123Z,47.10
2017-12-27T10:52:15.237Z,46.40
2017-12-27T10:53:16.571Z,46.20
2017-12-27T10:54:17.860Z,45.80
2017-12-27T10:55:19.943Z,45.80
2017-12-27T10:56:21.231Z,45.80
2017-12-27T10:57:22.823Z,46.20
2017-12-27T10:58:24.180Z,46.30
2017-12-27T10:59:25.528Z,46.30
2017-12-27T11:00:26.821Z,46.00
2017-12-27T11:01:28.112Z,46.00
2017-12-27T11:02:29.552Z,45.70
2017-12-27T11:03:30.874Z,44.80
2017-12-27T11:04:32.163Z,44.00
2017-12-27T11:05:33.452Z,44.70
2017-12-27T11:06:34.745Z,45.20
2017-12-27T11:07:36.060Z,45.00
2017-12-27T11:08:38.084Z,43.60
2017-12-27T11:09:39.383Z,43.50
2017-12-27T11:10:40.664Z,43.40
2017-12-27T11:11:41.947Z,44.00
2017-12-27T11:12:43.276Z,43.80
2017-12-27T11:13:44.604Z,44.10
2017-12-27T11:14:45.904Z,43.70
2017-12-27T11:15:47.192Z,44.30
2017-12-27T11:16:48.470Z,44.40
2017-12-27T11:17:50.027Z,44.60
2017-12-27T11:18:52.064Z,43.20
2017-12-27T11:19:53.340Z,43.10
2017-12-27T11:20:55.364Z,44.10
2017-12-27T11:21:56.668Z,44.10
2017-12-27T11:22:57.992Z,44.20
2017-12-27T11:23:59.285Z,44.10
2017-12-27T11:25:00.580Z,44.20
2017-12-27T11:26:01.864Z,43.20
2017-12-27T11:27:03.904Z,42.40
2017-12-27T11:28:05.212Z,42.30
2017-12-27T11:29:06.522Z,42.70
2017-12-27T11:30:07.830Z,42.90
2017-12-27T11:31:09.880Z,41.90
2017-12-27T11:32:11.935Z,42.60
2017-12-27T11:33:14.134Z,43.00
2017-12-27T11:34:15.416Z,43.00
2017-12-27T11:35:16.708Z,42.70
2017-12-27T11:36:17.994Z,42.20
2017-12-27T11:37:19.283Z,42.30
2017-12-27T11:38:20.585Z,42.50
2017-12-27T11:39:22.668Z,41.90
2017-12-27T11:40:23.968Z,41.90
2017-12-27T11:41:26.008Z,42.40
2017-12-27T11:42:27.307Z,41.70
2017-12-27T11:43:28.656Z,40.70
2017-12-27T11:44:29.937Z,40.90
2017-12-27T11:45:31.992Z,41.10
2017-12-27T11:46:34.034Z,41.20
2017-12-27T11:47:36.120Z,40.60
2017-12-27T11:48:37.466Z,40.40
2017-12-27T11:49:38.752Z,40.40
2017-12-27T11:50:40.044Z,40.00
2017-12-27T11:51:41.356Z,40.20
2017-12-27T11:52:42.658Z,40.10
2017-12-27T11:53:44.245Z,40.40
2017-12-27T11:54:45.546Z,39.80
2017-12-27T11:55:46.824Z,39.50
2017-12-27T11:56:48.120Z,40.10
2017-12-27T11:57:49.403Z,39.90
2017-12-27T11:58:51.042Z,39.80
2017-12-27T11:59:52.335Z,40.10
2017-12-27T12:00:53.635Z,39.60
2017-12-27T12:03:03.060Z,40.00
2017-12-27T12:04:04.486Z,39.40
2017-12-27T12:05:05.810Z,39.80
2017-12-27T12:06:07.185Z,39.80
2017-12-27T12:07:08.512Z,39.90
2017-12-27T12:08:09.876Z,40.30
2017-12-27T12:09:11.406Z,40.50
2017-12-27T12:10:12.708Z,40.60
2017-12-27T12:11:14.010Z,41.00
2017-12-27T12:12:16.047Z,40.20
2017-12-27T12:13:17.338Z,40.20
2017-12-27T12:14:18.928Z,40.20
2017-12-27T12:15:20.220Z,40.30
2017-12-27T12:16:21.506Z,39.60
2017-12-27T12:17:22.800Z,39.50
2017-12-27T12:18:24.092Z,39.80
2017-12-27T12:19:26.406Z,40.00
2017-12-27T12:20:27.687Z,39.90
2017-12-27T12:21:29.702Z,41.30
2017-12-27T12:22:31.009Z,41.30
2017-12-27T12:23:32.292Z,41.40
2017-12-27T12:24:33.600Z,41.60
2017-12-27T12:25:34.896Z,41.40
2017-12-27T12:26:37.008Z,41.30
2017-12-27T12:27:38.420Z,41.20
2017-12-27T12:28:39.867Z,41.20
2017-12-27T12:29:41.320Z,41.40
2017-12-27T12:30:42.717Z,41.10
2017-12-27T12:31:44.022Z,41.10
2017-12-27T12:32:45.337Z,41.50
2017-12-27T12:33:46.636Z,41.20
2017-12-27T12:34:47.934Z,41.50
2017-12-27T12:35:49.966Z,41.60
2017-12-27T12:36:51.240Z,41.60
2017-12-27T12:37:53.261Z,41.50
2017-12-27T12:38:54.579Z,41.40
2017-12-27T12:39:55.921Z,41.30
2017-12-27T12:40:57.223Z,41.30
2017-12-27T12:41:58.550Z,40.10
2017-12-27T12:43:00.650Z,39.90
2017-12-27T12:44:01.944Z,39.90
2017-12-27T12:45:03.264Z,39.60
2017-12-27T12:46:05.303Z,40.00
2017-12-27T12:47:06.615Z,40.00
2017-12-27T12:48:07.899Z,39.80
2017-12-27T12:49:09.923Z,39.90
2017-12-27T12:50:11.243Z,39.80
2017-12-27T12:51:12.542Z,40.10
2017-12-27T12:52:13.844Z,39.90
2017-12-27T12:53:15.125Z,39.60
2017-12-27T12:54:16.423Z,39.80
2017-12-27T12:55:17.764Z,39.60
2017-12-27T12:56:19.786Z,39.10
2017-12-27T12:57:21.071Z,39.10
2017-12-27T12:58:22.376Z,38.80
2017-12-27T12:59:23.691Z,38.30
2017-12-27T13:00:25.232Z,38.00
2017-12-27T13:01:26.520Z,38.90
2017-12-27T13:02:28.536Z,39.00
2017-12-27T13:03:29.830Z,39.00
2017-12-27T13:04:31.108Z,38.50
2017-12-27T13:05:32.416Z,38.70
2017-12-27T13:06:33.717Z,38.10
2017-12-27T13:07:35.739Z,37.80
2017-12-27T13:08:37.054Z,37.60
2017-12-27T13:09:38.408Z,38.00
2017-12-27T13:10:39.744Z,38.10
2017-12-27T13:11:41.037Z,38.20
2017-12-27T13:12:42.348Z,38.60
2017-12-27T13:13:44.415Z,38.10
2017-12-27T13:14:45.728Z,38.00
2017-12-27T13:15:47.084Z,38.40
2017-12-27T13:16:49.901Z,38.40
2017-12-27T13:17:51.185Z,38.40
2017-12-27T13:18:53.202Z,37.50
2017-12-27T13:19:54.546Z,37.50
2017-12-27T13:20:56.138Z,38.00